createdAt,value
2022-07-30T00:01:23.576Z,96803.47
2022-07-30T00:03:50.056Z,96812.66
2022-07-30T00:06:18.113Z,96809.59
2022-07-30T00:08:44.532Z,96806.91
2022-07-30T00:11:10.945Z,96808.81
2022-07-30T00:13:37.371Z,96805.75
2022-07-30T00:16:03.779Z,96806.91
2022-07-30T00:18:30.247Z,96803.84
2022-07-30T00:20:56.892Z,96802.69
2022-07-30T00:23:23.300Z,96804.59
2022-07-30T00:25:49.715Z,96798.84
2022-07-30T00:28:16.113Z,96796.13
2022-07-30T00:30:42.551Z,96796.16
2022-07-30T00:33:08.988Z,96796.50
2022-07-30T00:35:35.392Z,96792.28
2022-07-30T00:38:01.809Z,96791.91
2022-07-30T00:40:28.227Z,96789.59
2022-07-30T00:42:54.642Z,96791.16
2022-07-30T00:45:21.068Z,96788.06
2022-07-30T00:47:47.467Z,96793.06
2022-07-30T00:50:13.877Z,96797.28
2022-07-30T00:52:40.301Z,96790.75
2022-07-30T00:55:06.712Z,96797.66
2022-07-30T00:57:33.120Z,96798.44
2022-07-30T01:00:01.243Z,96792.69
2022-07-30T01:02:27.704Z,96801.91
2022-07-30T01:04:54.129Z,96800.75
2022-07-30T01:07:20.539Z,96801.91
2022-07-30T01:09:50.391Z,96801.50
2022-07-30T01:12:16.811Z,96804.97
2022-07-30T01:14:43.237Z,96812.28
2022-07-30T01:17:09.652Z,96802.28
2022-07-30T01:19:36.153Z,96809.56
2022-07-30T01:22:02.548Z,96808.84
2022-07-30T01:24:28.964Z,96805.38
2022-07-30T01:26:55.381Z,96796.91
2022-07-30T01:29:21.780Z,96801.91
2022-07-30T01:31:48.248Z,96792.66
2022-07-30T01:34:14.710Z,96787.28
2022-07-30T01:36:41.125Z,96788.47
2022-07-30T01:39:07.537Z,96785.75
2022-07-30T01:41:33.940Z,96773.84
2022-07-30T01:44:00.362Z,96764.22
2022-07-30T01:46:26.842Z,96756.94
2022-07-30T01:48:53.318Z,96767.31
2022-07-30T01:51:19.759Z,96762.69
2022-07-30T01:53:46.167Z,96763.09
2022-07-30T01:56:12.561Z,96764.63
2022-07-30T01:58:43.148Z,96769.25
2022-07-30T02:01:09.653Z,96775.00
2022-07-30T02:03:36.176Z,96778.81
2022-07-30T02:06:02.593Z,96783.06
2022-07-30T02:08:29.012Z,96781.50
2022-07-30T02:10:55.420Z,96773.81
2022-07-30T02:13:21.822Z,96781.16
2022-07-30T02:15:48.225Z,96781.50
2022-07-30T02:18:14.647Z,96789.59
2022-07-30T02:20:41.046Z,96794.19
2022-07-30T02:23:07.467Z,96796.50
2022-07-30T02:25:33.877Z,96789.97
2022-07-30T02:28:00.382Z,96785.38
2022-07-30T02:30:26.795Z,96782.66
2022-07-30T02:32:53.203Z,96786.13
2022-07-30T02:35:19.608Z,96788.41
2022-07-30T02:37:46.100Z,96793.44
2022-07-30T02:40:12.505Z,96787.66
2022-07-30T02:42:38.910Z,96793.06
2022-07-30T02:45:05.330Z,96792.69
2022-07-30T02:47:31.785Z,96791.88
2022-07-30T02:49:58.204Z,96788.03
2022-07-30T02:52:24.619Z,96793.06
2022-07-30T02:54:51.031Z,96790.38
2022-07-30T02:57:17.451Z,96793.78
2022-07-30T02:59:43.864Z,96793.41
2022-07-30T03:02:10.340Z,96791.09
2022-07-30T03:04:36.822Z,96793.44
2022-07-30T03:07:07.936Z,96791.09
2022-07-30T03:09:51.460Z,96789.56
2022-07-30T03:12:18.981Z,96787.66
2022-07-30T03:14:45.413Z,96785.38
2022-07-30T03:17:11.815Z,96781.16
2022-07-30T03:19:38.212Z,96778.06
2022-07-30T03:22:04.644Z,96777.28
2022-07-30T03:24:31.049Z,96789.16
2022-07-30T03:26:57.605Z,96790.34
2022-07-30T03:29:24.156Z,96781.91
2022-07-30T03:31:50.681Z,96779.59
2022-07-30T03:34:17.121Z,96789.94
2022-07-30T03:36:44.386Z,96786.88
2022-07-30T03:39:10.913Z,96791.09
2022-07-30T03:41:37.337Z,96790.31
2022-07-30T03:44:04.951Z,96795.34
2022-07-30T03:46:31.405Z,96791.88
2022-07-30T03:48:57.892Z,96792.25
2022-07-30T03:51:24.343Z,96791.84
2022-07-30T03:53:50.761Z,96799.56
2022-07-30T03:56:17.203Z,96798.00
2022-07-30T03:58:43.620Z,96801.84
2022-07-30T04:01:10.031Z,96800.31
2022-07-30T04:03:36.493Z,96797.63
2022-07-30T04:06:02.954Z,96806.06
2022-07-30T04:08:29.359Z,96809.53
2022-07-30T04:10:55.783Z,96805.34
2022-07-30T04:13:22.190Z,96810.28
2022-07-30T04:16:05.826Z,96816.00
2022-07-30T04:18:35.008Z,96811.06
2022-07-30T04:21:01.426Z,96811.44
2022-07-30T04:23:27.836Z,96813.75
2022-07-30T04:25:54.241Z,96819.91
2022-07-30T04:28:20.649Z,96807.22
2022-07-30T04:30:47.060Z,96813.00
2022-07-30T04:33:13.470Z,96815.69
2022-07-30T04:35:51.668Z,96820.28
2022-07-30T04:38:18.559Z,96817.97
2022-07-30T04:40:44.974Z,96826.81
2022-07-30T04:43:11.371Z,96826.41
2022-07-30T04:45:37.777Z,96833.34
2022-07-30T04:48:04.208Z,96835.63
2022-07-30T04:50:30.615Z,96840.25
2022-07-30T04:52:57.029Z,96843.72
2022-07-30T04:55:23.442Z,96851.78
2022-07-30T04:57:49.886Z,96849.88
2022-07-30T05:00:16.292Z,96853.69
2022-07-30T05:02:42.697Z,96854.09
2022-07-30T05:05:09.148Z,96851.41
2022-07-30T05:07:35.586Z,96851.78
2022-07-30T05:10:01.988Z,96850.25
2022-07-30T05:12:28.396Z,96849.09
2022-07-30T05:14:54.822Z,96859.47
2022-07-30T05:17:21.229Z,96855.66
2022-07-30T05:19:47.638Z,96857.19
2022-07-30T05:22:14.790Z,96858.34
2022-07-30T05:24:41.208Z,96860.63
2022-07-30T05:27:07.608Z,96856.41
2022-07-30T05:29:34.015Z,96848.31
2022-07-30T05:32:02.556Z,96850.25
2022-07-30T05:34:29.968Z,96854.09
2022-07-30T05:36:56.374Z,96853.69
2022-07-30T05:39:22.817Z,96852.53
2022-07-30T05:41:49.220Z,96849.03
2022-07-30T05:44:15.627Z,96852.00
2022-07-30T05:46:42.182Z,96855.06
2022-07-30T05:49:08.692Z,96856.16
2022-07-30T05:51:35.137Z,96865.38
2022-07-30T05:54:01.548Z,96863.44
2022-07-30T05:56:27.953Z,96863.41
2022-07-30T05:58:54.352Z,96873.81
2022-07-30T06:01:20.824Z,96868.88
2022-07-30T06:03:47.276Z,96872.06
2022-07-30T06:06:13.682Z,96876.72
2022-07-30T06:08:40.098Z,96873.50
2022-07-30T06:11:06.516Z,96875.91
2022-07-30T06:13:32.915Z,96875.13
2022-07-30T06:15:59.377Z,96882.78
2022-07-30T06:18:25.839Z,96883.69
2022-07-30T06:20:52.458Z,96878.22
2022-07-30T06:23:18.940Z,96870.94
2022-07-30T06:25:45.351Z,96874.75
2022-07-30T06:28:35.869Z,96874.72
2022-07-30T06:30:58.234Z,96877.41
2022-07-30T06:33:24.703Z,96875.88
2022-07-30T06:35:51.115Z,96877.03
2022-07-30T06:38:17.513Z,96875.13
2022-07-30T06:40:43.942Z,96875.63
2022-07-30T06:43:10.351Z,96869.47
2022-07-30T06:45:36.763Z,96876.78
2022-07-30T06:48:03.181Z,96879.91
2022-07-30T06:50:29.595Z,96875.69
2022-07-30T06:52:55.998Z,96878.75
2022-07-30T06:55:22.388Z,96873.00
2022-07-30T06:57:48.821Z,96876.41
2022-07-30T07:00:15.224Z,96876.81
2022-07-30T07:02:41.630Z,96879.88
2022-07-30T07:05:08.041Z,96883.75
2022-07-30T07:07:41.919Z,96879.91
2022-07-30T07:10:10.794Z,96879.47
2022-07-30T07:12:37.209Z,96873.38
2022-07-30T07:15:03.627Z,96879.16
2022-07-30T07:17:30.068Z,96883.03
2022-07-30T07:19:59.782Z,96884.53
2022-07-30T07:22:28.632Z,96882.25
2022-07-30T07:24:55.045Z,96880.31
2022-07-30T07:27:21.453Z,96883.03
2022-07-30T07:30:00.985Z,96886.03
2022-07-30T07:32:31.595Z,96879.94
2022-07-30T07:34:57.998Z,96888.41
2022-07-30T07:37:24.413Z,96881.91
2022-07-30T07:39:50.808Z,96876.94
2022-07-30T07:42:17.209Z,96880.34
2022-07-30T07:44:43.616Z,96883.41
2022-07-30T07:47:10.022Z,96883.41
2022-07-30T07:49:36.436Z,96882.63
2022-07-30T07:52:02.836Z,96875.34
2022-07-30T07:54:29.231Z,96876.09
2022-07-30T07:56:55.682Z,96872.97
2022-07-30T07:59:22.098Z,96872.50
2022-07-30T08:01:49.874Z,96875.91
2022-07-30T08:04:16.430Z,96880.13
2022-07-30T08:06:43.132Z,96885.47
2022-07-30T08:09:09.630Z,96881.72
2022-07-30T08:11:36.029Z,96887.06
2022-07-30T08:14:02.521Z,96888.28
2022-07-30T08:16:28.956Z,96887.50
2022-07-30T08:18:55.422Z,96891.16
2022-07-30T08:21:21.899Z,96889.69
2022-07-30T08:23:48.308Z,96892.03
2022-07-30T08:26:14.722Z,96892.44
2022-07-30T08:28:41.129Z,96892.13
2022-07-30T08:31:07.550Z,96889.47
2022-07-30T08:33:34.006Z,96890.59
2022-07-30T08:36:04.117Z,96887.94
2022-07-30T08:38:35.410Z,96895.91
2022-07-30T08:41:01.829Z,96889.41
2022-07-30T08:43:28.230Z,96890.25
2022-07-30T08:45:54.633Z,96889.47
2022-07-30T08:48:21.031Z,96886.03
2022-07-30T08:50:47.442Z,96890.31
2022-07-30T08:53:13.857Z,96890.25
2022-07-30T08:55:40.266Z,96891.06
2022-07-30T08:58:06.687Z,96888.41
2022-07-30T09:00:33.104Z,96886.53
2022-07-30T09:02:59.500Z,96889.59
2022-07-30T09:05:25.915Z,96888.84
2022-07-30T09:07:52.341Z,96880.81
2022-07-30T09:10:18.784Z,96890.41
2022-07-30T09:12:45.236Z,96886.13
2022-07-30T09:15:11.637Z,96885.34
2022-07-30T09:17:38.045Z,96894.19
2022-07-30T09:20:04.451Z,96888.47
2022-07-30T09:22:30.958Z,96881.94
2022-07-30T09:24:57.368Z,96890.78
2022-07-30T09:27:23.760Z,96897.72
2022-07-30T09:29:50.173Z,96896.97
2022-07-30T09:32:16.586Z,96890.81
2022-07-30T09:34:42.997Z,96893.88
2022-07-30T09:37:09.410Z,96897.72
2022-07-30T09:39:35.825Z,96896.56
2022-07-30T09:42:02.537Z,96892.75
2022-07-30T09:44:29.232Z,96891.19
2022-07-30T09:46:55.630Z,96891.59
2022-07-30T09:49:22.102Z,96889.31
2022-07-30T09:51:56.251Z,96878.16
2022-07-30T09:54:33.240Z,96894.28
2022-07-30T09:57:00.802Z,96883.16
2022-07-30T09:59:28.388Z,96877.81
2022-07-30T10:02:04.109Z,96883.56
2022-07-30T10:04:36.467Z,96878.59
2022-07-30T10:07:07.011Z,96882.84
2022-07-30T10:09:33.438Z,96878.59
2022-07-30T10:12:04.244Z,96882.88
2022-07-30T10:14:32.119Z,96871.75
2022-07-30T10:16:58.832Z,96876.34
2022-07-30T10:19:39.778Z,96874.81
2022-07-30T10:22:08.128Z,96880.59
2022-07-30T10:24:34.549Z,96881.38
2022-07-30T10:27:01.141Z,96877.53
2022-07-30T10:29:33.553Z,96884.81
2022-07-30T10:32:00.540Z,96878.31
2022-07-30T10:34:31.327Z,96876.75
2022-07-30T10:37:01.705Z,96877.94
2022-07-30T10:39:34.709Z,96877.16
2022-07-30T10:42:01.319Z,96868.72
2022-07-30T10:44:27.733Z,96879.47
2022-07-30T10:46:54.505Z,96874.09
2022-07-30T10:49:23.995Z,96872.56
2022-07-30T10:51:50.758Z,96874.88
2022-07-30T10:54:17.156Z,96883.72
2022-07-30T10:56:45.326Z,96886.78
2022-07-30T10:59:11.744Z,96884.47
2022-07-30T11:01:41.423Z,96877.94
2022-07-30T11:04:11.925Z,96872.94
2022-07-30T11:06:38.329Z,96873.34
2022-07-30T11:09:04.741Z,96880.25
2022-07-30T11:12:02.255Z,96884.47
2022-07-30T11:14:17.533Z,96867.94
2022-07-30T11:16:46.834Z,96882.56
2022-07-30T11:19:55.753Z,96883.72
2022-07-30T11:21:59.901Z,96880.28
2022-07-30T11:24:26.481Z,96874.91
2022-07-30T11:26:52.877Z,96880.28
2022-07-30T11:29:19.937Z,96877.97
2022-07-30T11:32:00.946Z,96880.28
2022-07-30T11:34:30.763Z,96876.03
2022-07-30T11:36:57.510Z,96884.88
2022-07-30T11:39:23.912Z,96880.63
2022-07-30T11:42:00.054Z,96889.50
2022-07-30T11:44:26.715Z,96881.81
2022-07-30T11:46:53.134Z,96878.34
2022-07-30T11:49:19.562Z,96872.97
2022-07-30T11:51:46.043Z,96883.34
2022-07-30T11:54:12.462Z,96879.13
2022-07-30T11:56:38.861Z,96876.44
2022-07-30T11:59:05.267Z,96878.38
2022-07-30T12:01:31.674Z,96877.97
2022-07-30T12:03:58.088Z,96881.47
2022-07-30T12:06:24.504Z,96876.44
2022-07-30T12:08:53.893Z,96877.63
2022-07-30T12:11:21.569Z,96878.00
2022-07-30T12:13:47.968Z,96878.75
2022-07-30T12:16:14.377Z,96877.63
2022-07-30T12:18:40.781Z,96871.09
2022-07-30T12:21:07.184Z,96872.63
2022-07-30T12:23:33.594Z,96862.66
2022-07-30T12:26:00.012Z,96871.50
2022-07-30T12:28:26.425Z,96862.25
2022-07-30T12:30:52.831Z,96876.47
2022-07-30T12:33:19.232Z,96869.94
2022-07-30T12:35:45.641Z,96867.28
2022-07-30T12:38:12.062Z,96871.47
2022-07-30T12:40:38.464Z,96876.09
2022-07-30T12:43:04.883Z,96869.19
2022-07-30T12:45:52.085Z,96876.88
2022-07-30T12:48:20.735Z,96875.72
2022-07-30T12:50:48.536Z,96871.88
2022-07-30T12:53:14.952Z,96873.81
2022-07-30T12:55:41.351Z,96866.09
2022-07-30T12:58:08.995Z,96863.78
2022-07-30T13:00:35.647Z,96862.28
2022-07-30T13:03:02.054Z,96860.34
2022-07-30T13:05:28.559Z,96868.78
2022-07-30T13:07:54.998Z,96860.34
2022-07-30T13:10:21.414Z,96864.97
2022-07-30T13:12:47.829Z,96855.38
2022-07-30T13:15:14.330Z,96853.81
2022-07-30T13:17:40.743Z,96851.16
2022-07-30T13:20:07.191Z,96860.00
2022-07-30T13:22:33.620Z,96853.84
2022-07-30T13:25:00.030Z,96849.59
2022-07-30T13:27:26.443Z,96847.69
2022-07-30T13:29:52.854Z,96850.38
2022-07-30T13:32:19.291Z,96843.84
2022-07-30T13:34:45.692Z,96845.75
2022-07-30T13:37:12.101Z,96843.84
2022-07-30T13:39:38.508Z,96843.09
2022-07-30T13:42:04.914Z,96841.94
2022-07-30T13:44:31.327Z,96841.19
2022-07-30T13:47:01.715Z,96841.94
2022-07-30T13:49:28.626Z,96845.41
2022-07-30T13:51:56.673Z,96841.19
2022-07-30T13:54:23.113Z,96833.50
2022-07-30T13:56:49.527Z,96838.47
2022-07-30T13:59:15.962Z,96829.63
2022-07-30T14:01:42.411Z,96832.72
2022-07-30T14:04:08.879Z,96824.25
2022-07-30T14:06:35.282Z,96825.81
2022-07-30T14:09:01.784Z,96824.66
2022-07-30T14:11:28.190Z,96817.34
2022-07-30T14:13:54.582Z,96813.91
2022-07-30T14:16:43.674Z,96818.09
2022-07-30T14:19:07.431Z,96807.72
2022-07-30T14:21:33.840Z,96813.13
2022-07-30T14:24:00.235Z,96790.44
2022-07-30T14:26:36.302Z,96796.59
2022-07-30T14:29:03.085Z,96789.66
2022-07-30T14:31:29.587Z,96794.66
2022-07-30T14:33:55.984Z,96789.28
2022-07-30T14:36:22.386Z,96796.19
2022-07-30T14:38:48.891Z,96796.94
2022-07-30T14:41:15.302Z,96801.19
2022-07-30T14:43:41.715Z,96793.50
2022-07-30T14:46:08.132Z,96797.75
2022-07-30T14:48:34.537Z,96801.19
2022-07-30T14:51:15.979Z,96797.34
2022-07-30T14:53:47.292Z,96801.97
2022-07-30T14:56:13.838Z,96794.28
2022-07-30T14:58:40.642Z,96789.28
2022-07-30T15:01:16.025Z,96791.19
2022-07-30T15:03:43.172Z,96797.34
2022-07-30T15:06:09.593Z,96792.72
2022-07-30T15:08:36.014Z,96790.81
2022-07-30T15:11:02.697Z,96792.75
2022-07-30T15:13:32.468Z,96804.66
2022-07-30T15:15:58.944Z,96796.56
2022-07-30T15:18:25.361Z,96803.47
2022-07-30T15:20:51.761Z,96792.72
2022-07-30T15:23:18.155Z,96798.88
2022-07-30T15:25:44.573Z,96798.09
2022-07-30T15:28:10.967Z,96797.34
2022-07-30T15:30:37.373Z,96790.81
2022-07-30T15:33:03.776Z,96795.44
2022-07-30T15:35:30.211Z,96790.78
2022-07-30T15:37:58.363Z,96788.50
2022-07-30T15:40:24.771Z,96789.66
2022-07-30T15:42:51.181Z,96792.72
2022-07-30T15:45:18.408Z,96795.78
2022-07-30T15:47:45.171Z,96784.63
2022-07-30T15:50:11.578Z,96776.16
2022-07-30T15:52:38.006Z,96781.91
2022-07-30T15:55:04.415Z,96785.75
2022-07-30T15:57:30.816Z,96778.84
2022-07-30T15:59:57.281Z,96782.28
2022-07-30T16:02:23.745Z,96774.97
2022-07-30T16:04:50.146Z,96770.75
2022-07-30T16:07:19.160Z,96771.91
2022-07-30T16:09:45.565Z,96762.69
2022-07-30T16:12:11.989Z,96765.38
2022-07-30T16:14:38.396Z,96757.66
2022-07-30T16:17:04.819Z,96764.22
2022-07-30T16:19:31.237Z,96758.81
2022-07-30T16:21:57.638Z,96757.69
2022-07-30T16:24:24.040Z,96750.75
2022-07-30T16:26:50.454Z,96748.03
2022-07-30T16:29:16.862Z,96749.19
2022-07-30T16:31:43.272Z,96754.19
2022-07-30T16:34:09.678Z,96746.13
2022-07-30T16:36:36.079Z,96751.13
2022-07-30T16:39:02.488Z,96752.28
2022-07-30T16:41:28.894Z,96748.81
2022-07-30T16:43:55.312Z,96744.97
2022-07-30T16:46:21.734Z,96745.34
2022-07-30T16:48:50.493Z,96748.03
2022-07-30T16:51:17.158Z,96746.13
2022-07-30T16:53:43.565Z,96751.13
2022-07-30T16:56:09.965Z,96754.59
2022-07-30T16:58:36.390Z,96753.81
2022-07-30T17:01:02.839Z,96747.28
2022-07-30T17:03:29.274Z,96748.41
2022-07-30T17:05:55.695Z,96751.13
2022-07-30T17:08:24.822Z,96751.91
2022-07-30T17:10:51.741Z,96751.88
2022-07-30T17:13:18.146Z,96749.97
2022-07-30T17:15:45.542Z,96751.88
2022-07-30T17:18:13.421Z,96753.81
2022-07-30T17:20:39.852Z,96754.19
2022-07-30T17:23:06.252Z,96754.59
2022-07-30T17:25:32.652Z,96757.66
2022-07-30T17:27:59.055Z,96750.31
2022-07-30T17:30:25.465Z,96754.94
2022-07-30T17:32:51.881Z,96758.03
2022-07-30T17:35:18.270Z,96755.34
2022-07-30T17:37:44.678Z,96764.53
2022-07-30T17:40:29.868Z,96759.56
2022-07-30T17:42:57.483Z,96759.94
2022-07-30T17:45:23.901Z,96769.94
2022-07-30T17:47:50.309Z,96764.56
2022-07-30T17:50:16.734Z,96764.91
2022-07-30T17:52:43.144Z,96764.53
2022-07-30T17:55:09.550Z,96762.59
2022-07-30T17:57:36.050Z,96767.97
2022-07-30T18:00:02.464Z,96769.50
2022-07-30T18:02:29.289Z,96770.28
2022-07-30T18:04:56.498Z,96762.59
2022-07-30T18:07:23.353Z,96764.91
2022-07-30T18:09:49.793Z,96769.91
2022-07-30T18:12:18.951Z,96773.00
2022-07-30T18:14:45.353Z,96771.50
2022-07-30T18:17:14.402Z,96771.06
2022-07-30T18:19:41.106Z,96772.63
2022-07-30T18:22:07.543Z,96769.97
2022-07-30T18:24:33.968Z,96769.56
2022-07-30T18:27:06.999Z,96774.97
2022-07-30T18:29:33.418Z,96777.28
2022-07-30T18:32:00.217Z,96775.38
2022-07-30T18:34:26.890Z,96774.63
2022-07-30T18:36:53.308Z,96780.78
2022-07-30T18:39:19.751Z,96787.69
2022-07-30T18:41:46.242Z,96778.47
2022-07-30T18:44:12.650Z,96783.47
2022-07-30T18:46:39.058Z,96787.69
2022-07-30T18:49:21.205Z,96782.31
2022-07-30T18:51:51.862Z,96780.75
2022-07-30T18:54:18.568Z,96787.34
2022-07-30T18:56:44.995Z,96783.88
2022-07-30T18:59:11.430Z,96788.44
2022-07-30T19:01:37.914Z,96791.16
2022-07-30T19:04:05.501Z,96791.53
2022-07-30T19:06:31.935Z,96797.69
2022-07-30T19:08:58.386Z,96787.69
2022-07-30T19:11:24.784Z,96787.31
2022-07-30T19:13:51.185Z,96798.09
2022-07-30T19:16:17.596Z,96802.69
2022-07-30T19:18:44.007Z,96802.69
2022-07-30T19:21:14.040Z,96803.09
2022-07-30T19:23:40.720Z,96805.78
2022-07-30T19:26:07.119Z,96810.78
2022-07-30T19:28:33.518Z,96816.91
2022-07-30T19:30:59.918Z,96818.09
2022-07-30T19:33:26.333Z,96823.09
2022-07-30T19:35:52.767Z,96818.88
2022-07-30T19:38:21.814Z,96815.78
2022-07-30T19:40:50.123Z,96820.78
2022-07-30T19:43:16.537Z,96831.94
2022-07-30T19:45:47.567Z,96837.31
2022-07-30T19:48:31.736Z,96833.13
2022-07-30T19:50:58.953Z,96832.31
2022-07-30T19:53:25.378Z,96834.25
2022-07-30T19:55:51.775Z,96836.56
2022-07-30T19:58:18.765Z,96835.81
2022-07-30T20:00:49.522Z,96845.44
2022-07-30T20:03:16.308Z,96851.97
2022-07-30T20:05:54.907Z,96851.94
2022-07-30T20:08:25.956Z,96847.34
2022-07-30T20:10:52.375Z,96851.56
2022-07-30T20:13:18.785Z,96846.97
2022-07-30T20:15:45.994Z,96856.19
2022-07-30T20:18:12.714Z,96864.25
2022-07-30T20:20:41.112Z,96867.34
2022-07-30T20:23:08.003Z,96866.94
2022-07-30T20:25:37.145Z,96865.81
2022-07-30T20:28:03.852Z,96861.19
2022-07-30T20:30:31.011Z,96860.03
2022-07-30T20:32:57.435Z,96866.97
2022-07-30T20:35:24.748Z,96865.03
2022-07-30T20:37:54.799Z,96866.19
2022-07-30T20:40:38.501Z,96861.97
2022-07-30T20:43:06.199Z,96866.59
2022-07-30T20:45:40.351Z,96868.09
2022-07-30T20:48:07.160Z,96868.88
2022-07-30T20:50:43.557Z,96868.50
2022-07-30T20:53:10.704Z,96868.09
2022-07-30T20:55:40.326Z,96870.44
2022-07-30T20:58:16.556Z,96862.31
2022-07-30T21:00:49.665Z,96863.88
2022-07-30T21:03:16.436Z,96864.25
2022-07-30T21:05:42.872Z,96871.19
2022-07-30T21:08:09.277Z,96868.50
2022-07-30T21:10:39.196Z,96880.41
2022-07-30T21:13:07.625Z,96876.19
2022-07-30T21:15:34.180Z,96878.09
2022-07-30T21:18:02.130Z,96874.25
2022-07-30T21:20:29.416Z,96870.41
2022-07-30T21:22:55.832Z,96868.09
2022-07-30T21:25:23.533Z,96874.28
2022-07-30T21:27:59.272Z,96871.19
2022-07-30T21:30:26.253Z,96871.19
2022-07-30T21:32:53.130Z,96869.63
2022-07-30T21:35:19.788Z,96875.03
2022-07-30T21:37:46.218Z,96865.41
2022-07-30T21:40:13.147Z,96870.81
2022-07-30T21:42:48.263Z,96868.88
2022-07-30T21:45:14.874Z,96860.78
2022-07-30T21:47:41.364Z,96863.88
2022-07-30T21:50:14.241Z,96867.72
2022-07-30T21:52:42.636Z,96873.09
2022-07-30T21:55:09.054Z,96868.47
2022-07-30T21:57:39.800Z,96877.34
2022-07-30T22:00:06.217Z,96881.94
2022-07-30T22:02:35.531Z,96890.72
2022-07-30T22:05:02.794Z,96890.03
2022-07-30T22:07:29.187Z,96881.97
2022-07-30T22:09:55.598Z,96888.88
2022-07-30T22:12:22.007Z,96893.50
2022-07-30T22:14:55.220Z,96893.47
2022-07-30T22:17:23.786Z,96898.09
2022-07-30T22:20:03.545Z,96891.97
2022-07-30T22:22:35.515Z,96893.13
2022-07-30T22:25:02.488Z,96901.59
2022-07-30T22:27:39.765Z,96891.94
2022-07-30T22:30:19.629Z,96898.09
2022-07-30T22:32:46.735Z,96891.56
2022-07-30T22:35:16.447Z,96888.88
2022-07-30T22:37:42.894Z,96881.56
2022-07-30T22:40:12.431Z,96887.72
2022-07-30T22:42:49.884Z,96884.28
2022-07-30T22:45:36.026Z,96895.03
2022-07-30T22:48:14.345Z,96891.56
2022-07-30T22:50:41.049Z,96877.34
2022-07-30T22:53:23.326Z,96881.97
2022-07-30T22:55:54.697Z,96884.66
2022-07-30T22:58:22.045Z,96884.28
2022-07-30T23:00:52.882Z,96879.25
2022-07-30T23:03:19.370Z,96882.34
2022-07-30T23:05:56.323Z,96885.41
2022-07-30T23:08:29.995Z,96884.28
2022-07-30T23:10:56.905Z,96877.72
2022-07-30T23:13:23.313Z,96883.50
2022-07-30T23:15:49.719Z,96884.25
2022-07-30T23:18:16.141Z,96890.41
2022-07-30T23:20:42.554Z,96885.72
2022-07-30T23:23:08.952Z,96890.38
2022-07-30T23:25:39.017Z,96887.69
2022-07-30T23:28:05.648Z,96892.28
2022-07-30T23:30:34.011Z,96891.13
2022-07-30T23:33:00.854Z,96883.44
2022-07-30T23:35:27.244Z,96888.06
2022-07-30T23:37:53.647Z,96883.03
2022-07-30T23:40:20.070Z,96882.63
2022-07-30T23:42:46.478Z,96884.19
2022-07-30T23:45:12.878Z,96890.34
2022-07-30T23:47:58.018Z,96895.72
2022-07-30T23:50:25.688Z,96901.88
2022-07-30T23:52:52.107Z,96897.66
2022-07-30T23:55:18.534Z,96910.31
2022-07-30T23:57:44.950Z,96904.16
